sensor_id;sensor_type;location;lat;lon;timestamp;P1;durP1;ratioP1;P2;durP2;ratioP2
20379;SDS011;10349;48.666;8.948;2022-12-07T00:00:55;5.43;;;4.60;;
20379;SDS011;10349;48.666;8.948;2022-12-07T00:03:30;8.70;;;5.90;;
20379;SDS011;10349;48.666;8.948;2022-12-07T00:05:59;10.87;;;5.67;;
20379;SDS011;10349;48.666;8.948;2022-12-07T00:08:25;6.80;;;5.63;;
20379;SDS011;10349;48.666;8.948;2022-12-07T00:10:52;6.20;;;5.70;;
20379;SDS011;10349;48.666;8.948;2022-12-07T00:13:18;5.03;;;4.50;;
20379;SDS011;10349;48.666;8.948;2022-12-07T00:15:44;6.70;;;5.50;;
20379;SDS011;10349;48.666;8.948;2022-12-07T00:18:10;7.77;;;5.70;;
20379;SDS011;10349;48.666;8.948;2022-12-07T00:20:35;9.73;;;5.50;;
20379;SDS011;10349;48.666;8.948;2022-12-07T00:23:07;7.43;;;4.83;;
20379;SDS011;10349;48.666;8.948;2022-12-07T00:25:32;9.30;;;5.37;;
20379;SDS011;10349;48.666;8.948;2022-12-07T00:27:58;11.27;;;5.20;;
20379;SDS011;10349;48.666;8.948;2022-12-07T00:30:23;5.97;;;5.37;;
20379;SDS011;10349;48.666;8.948;2022-12-07T00:32:49;11.63;;;6.50;;
20379;SDS011;10349;48.666;8.948;2022-12-07T00:35:15;7.57;;;5.80;;
20379;SDS011;10349;48.666;8.948;2022-12-07T00:37:41;6.87;;;5.90;;
20379;SDS011;10349;48.666;8.948;2022-12-07T00:40:06;5.37;;;4.97;;
20379;SDS011;10349;48.666;8.948;2022-12-07T00:42:32;6.13;;;5.10;;
20379;SDS011;10349;48.666;8.948;2022-12-07T00:44:58;7.10;;;6.27;;
20379;SDS011;10349;48.666;8.948;2022-12-07T00:47:24;7.23;;;5.63;;
20379;SDS011;10349;48.666;8.948;2022-12-07T00:49:49;6.53;;;5.70;;
20379;SDS011;10349;48.666;8.948;2022-12-07T00:52:15;6.33;;;5.73;;
20379;SDS011;10349;48.666;8.948;2022-12-07T00:54:41;5.93;;;4.83;;
20379;SDS011;10349;48.666;8.948;2022-12-07T00:57:06;7.07;;;5.03;;
20379;SDS011;10349;48.666;8.948;2022-12-07T00:59:32;4.80;;;4.40;;
20379;SDS011;10349;48.666;8.948;2022-12-07T01:01:57;6.30;;;5.50;;
20379;SDS011;10349;48.666;8.948;2022-12-07T01:04:23;9.97;;;6.20;;
20379;SDS011;10349;48.666;8.948;2022-12-07T01:06:49;6.70;;;5.83;;
20379;SDS011;10349;48.666;8.948;2022-12-07T01:09:15;7.33;;;5.27;;
20379;SDS011;10349;48.666;8.948;2022-12-07T01:11:40;6.60;;;5.53;;
20379;SDS011;10349;48.666;8.948;2022-12-07T01:14:06;8.60;;;5.80;;
20379;SDS011;10349;48.666;8.948;2022-12-07T01:16:33;8.27;;;5.57;;
20379;SDS011;10349;48.666;8.948;2022-12-07T01:18:59;10.93;;;5.60;;
20379;SDS011;10349;48.666;8.948;2022-12-07T01:21:27;7.37;;;5.83;;
20379;SDS011;10349;48.666;8.948;2022-12-07T01:23:54;8.60;;;5.87;;
20379;SDS011;10349;48.666;8.948;2022-12-07T01:26:22;7.67;;;6.10;;
20379;SDS011;10349;48.666;8.948;2022-12-07T01:28:49;9.73;;;7.20;;
20379;SDS011;10349;48.666;8.948;2022-12-07T01:31:16;8.47;;;6.13;;
20379;SDS011;10349;48.666;8.948;2022-12-07T01:33:45;11.43;;;6.83;;
20379;SDS011;10349;48.666;8.948;2022-12-07T01:36:17;8.80;;;6.87;;
20379;SDS011;10349;48.666;8.948;2022-12-07T01:38:47;13.07;;;6.90;;
20379;SDS011;10349;48.666;8.948;2022-12-07T01:41:16;9.47;;;6.70;;
20379;SDS011;10349;48.666;8.948;2022-12-07T01:46:35;8.10;;;6.70;;
20379;SDS011;10349;48.666;8.948;2022-12-07T01:49:01;10.93;;;6.13;;
20379;SDS011;10349;48.666;8.948;2022-12-07T01:51:28;7.57;;;6.33;;
20379;SDS011;10349;48.666;8.948;2022-12-07T01:53:54;9.47;;;6.37;;
20379;SDS011;10349;48.666;8.948;2022-12-07T01:56:22;9.53;;;6.87;;
20379;SDS011;10349;48.666;8.948;2022-12-07T01:58:51;8.83;;;6.90;;
20379;SDS011;10349;48.666;8.948;2022-12-07T02:01:19;9.70;;;6.50;;
20379;SDS011;10349;48.666;8.948;2022-12-07T02:03:44;8.03;;;6.80;;
20379;SDS011;10349;48.666;8.948;2022-12-07T02:06:11;6.07;;;5.37;;
20379;SDS011;10349;48.666;8.948;2022-12-07T02:08:41;9.10;;;6.30;;
20379;SDS011;10349;48.666;8.948;2022-12-07T02:11:07;9.73;;;5.83;;
20379;SDS011;10349;48.666;8.948;2022-12-07T02:13:35;11.63;;;7.10;;
20379;SDS011;10349;48.666;8.948;2022-12-07T02:21:51;9.67;;;5.33;;
20379;SDS011;10349;48.666;8.948;2022-12-07T02:24:31;10.20;;;7.43;;
20379;SDS011;10349;48.666;8.948;2022-12-07T02:29:41;11.50;;;6.70;;
20379;SDS011;10349;48.666;8.948;2022-12-07T02:32:43;11.43;;;7.43;;
20379;SDS011;10349;48.666;8.948;2022-12-07T02:35:20;10.20;;;6.27;;
20379;SDS011;10349;48.666;8.948;2022-12-07T02:43:21;12.40;;;7.20;;
20379;SDS011;10349;48.666;8.948;2022-12-07T02:45:59;10.20;;;6.57;;
20379;SDS011;10349;48.666;8.948;2022-12-07T02:48:29;7.60;;;6.80;;
20379;SDS011;10349;48.666;8.948;2022-12-07T02:50:58;7.70;;;6.70;;
20379;SDS011;10349;48.666;8.948;2022-12-07T02:59:05;9.13;;;6.67;;
20379;SDS011;10349;48.666;8.948;2022-12-07T03:02:02;7.70;;;5.03;;
20379;SDS011;10349;48.666;8.948;2022-12-07T03:10:07;8.83;;;5.30;;
20379;SDS011;10349;48.666;8.948;2022-12-07T03:13:14;11.60;;;7.70;;
20379;SDS011;10349;48.666;8.948;2022-12-07T03:16:02;8.43;;;6.90;;
20379;SDS011;10349;48.666;8.948;2022-12-07T03:18:32;11.97;;;7.37;;
20379;SDS011;10349;48.666;8.948;2022-12-07T03:21:04;9.73;;;6.37;;
20379;SDS011;10349;48.666;8.948;2022-12-07T03:23:35;10.37;;;7.13;;
20379;SDS011;10349;48.666;8.948;2022-12-07T03:26:04;8.23;;;6.93;;
20379;SDS011;10349;48.666;8.948;2022-12-07T03:28:32;7.83;;;6.27;;
20379;SDS011;10349;48.666;8.948;2022-12-07T03:34:12;10.70;;;8.27;;
20379;SDS011;10349;48.666;8.948;2022-12-07T03:36:46;9.37;;;6.87;;
20379;SDS011;10349;48.666;8.948;2022-12-07T03:41:54;12.57;;;11.20;;
20379;SDS011;10349;48.666;8.948;2022-12-07T03:44:21;17.90;;;14.00;;
20379;SDS011;10349;48.666;8.948;2022-12-07T03:46:52;16.30;;;12.20;;
20379;SDS011;10349;48.666;8.948;2022-12-07T03:49:41;9.80;;;7.73;;
20379;SDS011;10349;48.666;8.948;2022-12-07T03:54:59;10.73;;;6.50;;
20379;SDS011;10349;48.666;8.948;2022-12-07T03:57:31;13.50;;;6.87;;
20379;SDS011;10349;48.666;8.948;2022-12-07T03:59:59;8.83;;;6.73;;
20379;SDS011;10349;48.666;8.948;2022-12-07T04:02:26;9.00;;;6.30;;
20379;SDS011;10349;48.666;8.948;2022-12-07T04:04:53;9.00;;;6.20;;
20379;SDS011;10349;48.666;8.948;2022-12-07T04:07:19;9.00;;;6.83;;
20379;SDS011;10349;48.666;8.948;2022-12-07T04:09:45;10.90;;;5.73;;
20379;SDS011;10349;48.666;8.948;2022-12-07T04:12:11;8.17;;;6.10;;
20379;SDS011;10349;48.666;8.948;2022-12-07T04:14:36;7.50;;;5.07;;
20379;SDS011;10349;48.666;8.948;2022-12-07T04:17:02;9.10;;;5.80;;
20379;SDS011;10349;48.666;8.948;2022-12-07T04:19:29;7.33;;;5.20;;
20379;SDS011;10349;48.666;8.948;2022-12-07T04:21:57;10.57;;;6.60;;
20379;SDS011;10349;48.666;8.948;2022-12-07T04:24:24;10.10;;;6.70;;
20379;SDS011;10349;48.666;8.948;2022-12-07T04:26:51;15.80;;;7.13;;
20379;SDS011;10349;48.666;8.948;2022-12-07T04:29:17;7.63;;;6.03;;
20379;SDS011;10349;48.666;8.948;2022-12-07T04:31:44;10.37;;;6.17;;
20379;SDS011;10349;48.666;8.948;2022-12-07T04:34:10;11.37;;;5.87;;
20379;SDS011;10349;48.666;8.948;2022-12-07T04:36:37;10.47;;;7.50;;
20379;SDS011;10349;48.666;8.948;2022-12-07T04:39:04;7.60;;;6.00;;
20379;SDS011;10349;48.666;8.948;2022-12-07T04:41:31;11.83;;;7.07;;
20379;SDS011;10349;48.666;8.948;2022-12-07T04:43:58;11.00;;;6.90;;
20379;SDS011;10349;48.666;8.948;2022-12-07T04:46:26;11.47;;;6.50;;
20379;SDS011;10349;48.666;8.948;2022-12-07T04:48:52;12.70;;;6.43;;
20379;SDS011;10349;48.666;8.948;2022-12-07T04:51:20;14.00;;;9.00;;
20379;SDS011;10349;48.666;8.948;2022-12-07T04:53:47;9.90;;;7.50;;
20379;SDS011;10349;48.666;8.948;2022-12-07T04:56:14;10.10;;;7.77;;
20379;SDS011;10349;48.666;8.948;2022-12-07T04:58:40;15.87;;;7.73;;
20379;SDS011;10349;48.666;8.948;2022-12-07T05:01:07;8.30;;;6.60;;
20379;SDS011;10349;48.666;8.948;2022-12-07T05:03:32;9.33;;;6.87;;
20379;SDS011;10349;48.666;8.948;2022-12-07T05:05:58;10.40;;;7.80;;
20379;SDS011;10349;48.666;8.948;2022-12-07T05:08:23;11.20;;;6.87;;
20379;SDS011;10349;48.666;8.948;2022-12-07T05:10:49;6.90;;;6.20;;
20379;SDS011;10349;48.666;8.948;2022-12-07T05:13:15;16.17;;;7.73;;
20379;SDS011;10349;48.666;8.948;2022-12-07T05:15:41;11.20;;;7.87;;
20379;SDS011;10349;48.666;8.948;2022-12-07T05:18:09;16.07;;;7.90;;
20379;SDS011;10349;48.666;8.948;2022-12-07T05:20:37;12.13;;;7.70;;
20379;SDS011;10349;48.666;8.948;2022-12-07T05:23:02;11.70;;;7.73;;
20379;SDS011;10349;48.666;8.948;2022-12-07T05:25:28;12.63;;;8.47;;
20379;SDS011;10349;48.666;8.948;2022-12-07T05:27:54;13.17;;;8.80;;
20379;SDS011;10349;48.666;8.948;2022-12-07T05:30:21;12.93;;;7.93;;
20379;SDS011;10349;48.666;8.948;2022-12-07T05:32:47;13.57;;;9.00;;
20379;SDS011;10349;48.666;8.948;2022-12-07T05:35:13;11.40;;;8.13;;
20379;SDS011;10349;48.666;8.948;2022-12-07T05:37:38;8.17;;;6.30;;
20379;SDS011;10349;48.666;8.948;2022-12-07T05:40:04;14.40;;;7.40;;
20379;SDS011;10349;48.666;8.948;2022-12-07T05:42:32;19.13;;;8.87;;
20379;SDS011;10349;48.666;8.948;2022-12-07T05:44:57;13.20;;;8.07;;
20379;SDS011;10349;48.666;8.948;2022-12-07T05:47:24;9.90;;;7.10;;
20379;SDS011;10349;48.666;8.948;2022-12-07T05:49:50;10.17;;;7.47;;
20379;SDS011;10349;48.666;8.948;2022-12-07T05:52:15;11.80;;;6.43;;
20379;SDS011;10349;48.666;8.948;2022-12-07T05:54:41;11.60;;;8.20;;
20379;SDS011;10349;48.666;8.948;2022-12-07T05:57:07;9.50;;;6.70;;
20379;SDS011;10349;48.666;8.948;2022-12-07T05:59:33;14.00;;;7.97;;
20379;SDS011;10349;48.666;8.948;2022-12-07T06:02:00;11.43;;;6.70;;
20379;SDS011;10349;48.666;8.948;2022-12-07T06:04:28;9.23;;;6.93;;
20379;SDS011;10349;48.666;8.948;2022-12-07T06:06:56;13.63;;;7.87;;
20379;SDS011;10349;48.666;8.948;2022-12-07T06:09:23;17.10;;;8.03;;
20379;SDS011;10349;48.666;8.948;2022-12-07T06:11:49;15.33;;;7.97;;
20379;SDS011;10349;48.666;8.948;2022-12-07T06:14:34;9.80;;;7.30;;
20379;SDS011;10349;48.666;8.948;2022-12-07T06:17:00;10.50;;;6.70;;
20379;SDS011;10349;48.666;8.948;2022-12-07T06:19:26;8.53;;;7.67;;
20379;SDS011;10349;48.666;8.948;2022-12-07T06:21:53;12.80;;;7.30;;
20379;SDS011;10349;48.666;8.948;2022-12-07T06:24:18;13.23;;;7.07;;
20379;SDS011;10349;48.666;8.948;2022-12-07T06:26:44;15.37;;;9.07;;
20379;SDS011;10349;48.666;8.948;2022-12-07T06:29:10;12.33;;;8.37;;
20379;SDS011;10349;48.666;8.948;2022-12-07T06:31:37;14.47;;;8.80;;
20379;SDS011;10349;48.666;8.948;2022-12-07T06:34:05;13.70;;;7.40;;
20379;SDS011;10349;48.666;8.948;2022-12-07T06:36:38;14.90;;;8.43;;
20379;SDS011;10349;48.666;8.948;2022-12-07T06:39:04;13.27;;;8.40;;
20379;SDS011;10349;48.666;8.948;2022-12-07T06:41:31;14.17;;;7.67;;
20379;SDS011;10349;48.666;8.948;2022-12-07T06:43:57;18.63;;;14.17;;
20379;SDS011;10349;48.666;8.948;2022-12-07T06:46:22;12.83;;;8.37;;
20379;SDS011;10349;48.666;8.948;2022-12-07T06:48:48;17.40;;;10.10;;
20379;SDS011;10349;48.666;8.948;2022-12-07T06:51:14;14.60;;;10.07;;
20379;SDS011;10349;48.666;8.948;2022-12-07T06:53:40;16.20;;;9.43;;
20379;SDS011;10349;48.666;8.948;2022-12-07T06:56:06;17.80;;;10.20;;
20379;SDS011;10349;48.666;8.948;2022-12-07T06:58:32;14.40;;;8.80;;
20379;SDS011;10349;48.666;8.948;2022-12-07T07:00:57;20.07;;;9.53;;
20379;SDS011;10349;48.666;8.948;2022-12-07T07:03:24;18.17;;;9.97;;
20379;SDS011;10349;48.666;8.948;2022-12-07T07:05:49;18.33;;;9.60;;
20379;SDS011;10349;48.666;8.948;2022-12-07T07:08:15;13.90;;;9.10;;
20379;SDS011;10349;48.666;8.948;2022-12-07T07:10:41;22.43;;;10.93;;
20379;SDS011;10349;48.666;8.948;2022-12-07T07:13:06;21.93;;;9.97;;
20379;SDS011;10349;48.666;8.948;2022-12-07T07:15:33;20.73;;;8.30;;
20379;SDS011;10349;48.666;8.948;2022-12-07T07:17:59;17.10;;;9.33;;
20379;SDS011;10349;48.666;8.948;2022-12-07T07:20:25;14.83;;;10.60;;
20379;SDS011;10349;48.666;8.948;2022-12-07T07:22:53;22.67;;;11.20;;
20379;SDS011;10349;48.666;8.948;2022-12-07T07:25:20;18.60;;;9.33;;
20379;SDS011;10349;48.666;8.948;2022-12-07T07:27:46;21.87;;;11.20;;
20379;SDS011;10349;48.666;8.948;2022-12-07T07:30:12;17.77;;;10.27;;
20379;SDS011;10349;48.666;8.948;2022-12-07T07:32:37;19.03;;;11.33;;
20379;SDS011;10349;48.666;8.948;2022-12-07T07:35:03;35.63;;;13.20;;
20379;SDS011;10349;48.666;8.948;2022-12-07T07:37:29;25.63;;;12.07;;
20379;SDS011;10349;48.666;8.948;2022-12-07T07:39:55;23.17;;;11.60;;
20379;SDS011;10349;48.666;8.948;2022-12-07T07:42:21;14.27;;;10.43;;
20379;SDS011;10349;48.666;8.948;2022-12-07T07:44:47;17.70;;;11.27;;
20379;SDS011;10349;48.666;8.948;2022-12-07T07:47:12;20.17;;;11.03;;
20379;SDS011;10349;48.666;8.948;2022-12-07T07:49:38;14.00;;;8.37;;
20379;SDS011;10349;48.666;8.948;2022-12-07T07:52:05;26.30;;;9.57;;
20379;SDS011;10349;48.666;8.948;2022-12-07T07:54:31;27.40;;;9.83;;
20379;SDS011;10349;48.666;8.948;2022-12-07T07:56:57;14.53;;;9.70;;
20379;SDS011;10349;48.666;8.948;2022-12-07T07:59:23;17.60;;;9.23;;
20379;SDS011;10349;48.666;8.948;2022-12-07T08:01:50;24.43;;;10.67;;
20379;SDS011;10349;48.666;8.948;2022-12-07T08:04:15;13.60;;;9.30;;
20379;SDS011;10349;48.666;8.948;2022-12-07T08:06:41;15.20;;;9.87;;
20379;SDS011;10349;48.666;8.948;2022-12-07T08:09:07;18.43;;;8.53;;
20379;SDS011;10349;48.666;8.948;2022-12-07T08:11:34;19.20;;;8.80;;
20379;SDS011;10349;48.666;8.948;2022-12-07T08:14:01;15.70;;;8.53;;
20379;SDS011;10349;48.666;8.948;2022-12-07T08:16:27;12.33;;;8.07;;
20379;SDS011;10349;48.666;8.948;2022-12-07T08:18:52;13.27;;;8.67;;
20379;SDS011;10349;48.666;8.948;2022-12-07T08:21:18;11.17;;;8.53;;
20379;SDS011;10349;48.666;8.948;2022-12-07T08:23:44;15.27;;;8.80;;
20379;SDS011;10349;48.666;8.948;2022-12-07T08:26:10;10.67;;;6.70;;
20379;SDS011;10349;48.666;8.948;2022-12-07T08:28:38;13.97;;;8.90;;
20379;SDS011;10349;48.666;8.948;2022-12-07T08:31:05;8.10;;;6.50;;
20379;SDS011;10349;48.666;8.948;2022-12-07T08:33:42;9.27;;;7.10;;
20379;SDS011;10349;48.666;8.948;2022-12-07T08:36:10;9.63;;;5.87;;
20379;SDS011;10349;48.666;8.948;2022-12-07T08:38:37;11.37;;;5.87;;
20379;SDS011;10349;48.666;8.948;2022-12-07T08:41:04;9.43;;;5.93;;
20379;SDS011;10349;48.666;8.948;2022-12-07T08:43:30;6.67;;;6.00;;
20379;SDS011;10349;48.666;8.948;2022-12-07T08:46:04;8.77;;;7.07;;
20379;SDS011;10349;48.666;8.948;2022-12-07T08:48:44;11.20;;;6.50;;
20379;SDS011;10349;48.666;8.948;2022-12-07T08:51:16;7.70;;;5.97;;
20379;SDS011;10349;48.666;8.948;2022-12-07T08:53:41;9.13;;;6.30;;
20379;SDS011;10349;48.666;8.948;2022-12-07T08:56:08;9.03;;;5.87;;
20379;SDS011;10349;48.666;8.948;2022-12-07T08:58:34;8.83;;;7.40;;
20379;SDS011;10349;48.666;8.948;2022-12-07T09:01:02;8.93;;;6.37;;
20379;SDS011;10349;48.666;8.948;2022-12-07T09:03:28;8.60;;;6.50;;
20379;SDS011;10349;48.666;8.948;2022-12-07T09:05:54;7.10;;;6.00;;
20379;SDS011;10349;48.666;8.948;2022-12-07T09:08:20;11.90;;;5.00;;
20379;SDS011;10349;48.666;8.948;2022-12-07T09:10:47;9.13;;;6.37;;
20379;SDS011;10349;48.666;8.948;2022-12-07T09:13:13;8.87;;;6.13;;
20379;SDS011;10349;48.666;8.948;2022-12-07T09:15:39;10.13;;;6.23;;
20379;SDS011;10349;48.666;8.948;2022-12-07T09:18:04;8.83;;;5.00;;
20379;SDS011;10349;48.666;8.948;2022-12-07T09:20:31;7.33;;;5.00;;
20379;SDS011;10349;48.666;8.948;2022-12-07T09:22:57;6.77;;;5.57;;
20379;SDS011;10349;48.666;8.948;2022-12-07T09:25:22;11.90;;;6.20;;
20379;SDS011;10349;48.666;8.948;2022-12-07T09:27:48;8.57;;;5.43;;
20379;SDS011;10349;48.666;8.948;2022-12-07T09:30:20;6.37;;;5.70;;
20379;SDS011;10349;48.666;8.948;2022-12-07T09:32:46;6.33;;;4.50;;
20379;SDS011;10349;48.666;8.948;2022-12-07T09:35:11;11.40;;;5.80;;
20379;SDS011;10349;48.666;8.948;2022-12-07T09:37:37;10.67;;;5.90;;
20379;SDS011;10349;48.666;8.948;2022-12-07T09:40:03;8.63;;;6.20;;
20379;SDS011;10349;48.666;8.948;2022-12-07T09:42:32;7.13;;;5.40;;
20379;SDS011;10349;48.666;8.948;2022-12-07T09:45:01;7.23;;;5.50;;
20379;SDS011;10349;48.666;8.948;2022-12-07T09:47:29;6.03;;;5.43;;
20379;SDS011;10349;48.666;8.948;2022-12-07T09:49:55;5.03;;;4.60;;
20379;SDS011;10349;48.666;8.948;2022-12-07T09:52:29;5.17;;;4.63;;
20379;SDS011;10349;48.666;8.948;2022-12-07T09:54:55;5.50;;;4.40;;
20379;SDS011;10349;48.666;8.948;2022-12-07T09:57:25;6.80;;;5.53;;
20379;SDS011;10349;48.666;8.948;2022-12-07T09:59:56;9.20;;;4.97;;
20379;SDS011;10349;48.666;8.948;2022-12-07T10:05:13;9.03;;;6.70;;
20379;SDS011;10349;48.666;8.948;2022-12-07T10:07:41;4.57;;;4.27;;
20379;SDS011;10349;48.666;8.948;2022-12-07T10:10:15;7.00;;;6.20;;
20379;SDS011;10349;48.666;8.948;2022-12-07T10:13:05;8.20;;;5.60;;
20379;SDS011;10349;48.666;8.948;2022-12-07T10:15:47;5.50;;;4.50;;
20379;SDS011;10349;48.666;8.948;2022-12-07T10:23:36;5.13;;;4.70;;
20379;SDS011;10349;48.666;8.948;2022-12-07T10:26:20;5.10;;;4.50;;
20379;SDS011;10349;48.666;8.948;2022-12-07T10:28:54;7.87;;;6.80;;
20379;SDS011;10349;48.666;8.948;2022-12-07T10:31:23;5.50;;;4.67;;
20379;SDS011;10349;48.666;8.948;2022-12-07T10:33:59;8.70;;;5.03;;
20379;SDS011;10349;48.666;8.948;2022-12-07T10:39:03;6.50;;;5.83;;
20379;SDS011;10349;48.666;8.948;2022-12-07T10:41:52;7.33;;;5.63;;
20379;SDS011;10349;48.666;8.948;2022-12-07T10:44:28;9.30;;;4.90;;
20379;SDS011;10349;48.666;8.948;2022-12-07T10:47:05;6.77;;;5.40;;
20379;SDS011;10349;48.666;8.948;2022-12-07T10:52:45;7.07;;;4.80;;
20379;SDS011;10349;48.666;8.948;2022-12-07T11:25:41;6.37;;;4.73;;
20379;SDS011;10349;48.666;8.948;2022-12-07T11:29:05;6.40;;;4.93;;
20379;SDS011;10349;48.666;8.948;2022-12-07T11:36:41;8.37;;;5.80;;
20379;SDS011;10349;48.666;8.948;2022-12-07T11:39:30;8.60;;;4.60;;
20379;SDS011;10349;48.666;8.948;2022-12-07T11:42:04;5.40;;;4.90;;
20379;SDS011;10349;48.666;8.948;2022-12-07T11:44:47;6.90;;;5.07;;
20379;SDS011;10349;48.666;8.948;2022-12-07T11:47:30;5.00;;;4.60;;
20379;SDS011;10349;48.666;8.948;2022-12-07T11:50:21;11.80;;;5.07;;
20379;SDS011;10349;48.666;8.948;2022-12-07T12:03:49;5.27;;;4.10;;
20379;SDS011;10349;48.666;8.948;2022-12-07T12:06:18;5.63;;;4.53;;
20379;SDS011;10349;48.666;8.948;2022-12-07T12:08:50;6.60;;;4.53;;
20379;SDS011;10349;48.666;8.948;2022-12-07T12:11:36;9.43;;;5.27;;
20379;SDS011;10349;48.666;8.948;2022-12-07T12:19:42;5.13;;;4.63;;
20379;SDS011;10349;48.666;8.948;2022-12-07T12:22:26;8.30;;;5.00;;
20379;SDS011;10349;48.666;8.948;2022-12-07T12:25:04;4.60;;;4.20;;
20379;SDS011;10349;48.666;8.948;2022-12-07T12:27:33;5.70;;;4.73;;
20379;SDS011;10349;48.666;8.948;2022-12-07T12:30:03;7.50;;;5.00;;
20379;SDS011;10349;48.666;8.948;2022-12-07T12:40:53;3.20;;;2.80;;
20379;SDS011;10349;48.666;8.948;2022-12-07T12:51:43;2.43;;;2.23;;
20379;SDS011;10349;48.666;8.948;2022-12-07T12:56:55;2.67;;;2.57;;
20379;SDS011;10349;48.666;8.948;2022-12-07T12:59:30;2.70;;;2.50;;
20379;SDS011;10349;48.666;8.948;2022-12-07T13:04:52;2.93;;;2.70;;
20379;SDS011;10349;48.666;8.948;2022-12-07T13:18:23;2.40;;;2.20;;
20379;SDS011;10349;48.666;8.948;2022-12-07T13:26:35;2.80;;;2.40;;
20379;SDS011;10349;48.666;8.948;2022-12-07T13:36:57;3.10;;;2.90;;
20379;SDS011;10349;48.666;8.948;2022-12-07T13:39:26;2.60;;;2.40;;
20379;SDS011;10349;48.666;8.948;2022-12-07T13:41:56;2.30;;;1.97;;
20379;SDS011;10349;48.666;8.948;2022-12-07T13:44:24;3.13;;;2.83;;
20379;SDS011;10349;48.666;8.948;2022-12-07T13:49:38;4.13;;;3.70;;
20379;SDS011;10349;48.666;8.948;2022-12-07T13:52:19;2.63;;;2.37;;
20379;SDS011;10349;48.666;8.948;2022-12-07T13:54:56;3.00;;;2.70;;
20379;SDS011;10349;48.666;8.948;2022-12-07T13:57:31;3.73;;;3.53;;
20379;SDS011;10349;48.666;8.948;2022-12-07T14:00:04;4.57;;;3.70;;
20379;SDS011;10349;48.666;8.948;2022-12-07T14:02:32;5.60;;;4.03;;
20379;SDS011;10349;48.666;8.948;2022-12-07T14:07:48;5.57;;;3.83;;
20379;SDS011;10349;48.666;8.948;2022-12-07T14:10:26;3.97;;;3.67;;
20379;SDS011;10349;48.666;8.948;2022-12-07T14:12:53;4.30;;;3.73;;
20379;SDS011;10349;48.666;8.948;2022-12-07T14:15:21;6.77;;;4.83;;
20379;SDS011;10349;48.666;8.948;2022-12-07T14:17:51;9.60;;;5.40;;
20379;SDS011;10349;48.666;8.948;2022-12-07T14:20:30;7.70;;;4.90;;
20379;SDS011;10349;48.666;8.948;2022-12-07T14:22:58;5.80;;;5.30;;
20379;SDS011;10349;48.666;8.948;2022-12-07T14:25:27;13.70;;;7.37;;
20379;SDS011;10349;48.666;8.948;2022-12-07T14:27:54;7.43;;;4.83;;
20379;SDS011;10349;48.666;8.948;2022-12-07T14:30:23;6.43;;;5.03;;
20379;SDS011;10349;48.666;8.948;2022-12-07T14:32:58;7.33;;;4.57;;
20379;SDS011;10349;48.666;8.948;2022-12-07T14:35:26;6.53;;;3.93;;
20379;SDS011;10349;48.666;8.948;2022-12-07T14:37:52;4.77;;;3.77;;
20379;SDS011;10349;48.666;8.948;2022-12-07T14:42:48;4.37;;;3.97;;
20379;SDS011;10349;48.666;8.948;2022-12-07T14:45:17;4.37;;;3.97;;
20379;SDS011;10349;48.666;8.948;2022-12-07T14:47:46;6.27;;;3.90;;
20379;SDS011;10349;48.666;8.948;2022-12-07T14:50:21;5.43;;;4.93;;
20379;SDS011;10349;48.666;8.948;2022-12-07T14:52:57;8.50;;;3.60;;
20379;SDS011;10349;48.666;8.948;2022-12-07T14:55:26;6.97;;;5.23;;
20379;SDS011;10349;48.666;8.948;2022-12-07T14:57:56;6.13;;;3.80;;
20379;SDS011;10349;48.666;8.948;2022-12-07T15:00:23;5.23;;;3.80;;
20379;SDS011;10349;48.666;8.948;2022-12-07T15:02:50;3.10;;;2.90;;
20379;SDS011;10349;48.666;8.948;2022-12-07T15:05:16;3.87;;;3.57;;
20379;SDS011;10349;48.666;8.948;2022-12-07T15:07:42;10.90;;;4.07;;
20379;SDS011;10349;48.666;8.948;2022-12-07T15:10:16;6.73;;;4.37;;
20379;SDS011;10349;48.666;8.948;2022-12-07T15:12:54;6.03;;;4.27;;
20379;SDS011;10349;48.666;8.948;2022-12-07T15:15:20;5.47;;;4.27;;
20379;SDS011;10349;48.666;8.948;2022-12-07T15:17:45;5.30;;;4.07;;
20379;SDS011;10349;48.666;8.948;2022-12-07T15:20:13;5.07;;;4.57;;
20379;SDS011;10349;48.666;8.948;2022-12-07T15:22:41;6.80;;;4.63;;
20379;SDS011;10349;48.666;8.948;2022-12-07T15:25:08;5.73;;;4.90;;
20379;SDS011;10349;48.666;8.948;2022-12-07T15:27:37;4.83;;;3.83;;
20379;SDS011;10349;48.666;8.948;2022-12-07T15:30:03;5.43;;;4.90;;
20379;SDS011;10349;48.666;8.948;2022-12-07T15:32:29;7.63;;;5.27;;
20379;SDS011;10349;48.666;8.948;2022-12-07T15:34:55;7.07;;;4.40;;
20379;SDS011;10349;48.666;8.948;2022-12-07T15:37:21;7.87;;;5.70;;
20379;SDS011;10349;48.666;8.948;2022-12-07T15:39:46;6.43;;;5.20;;
20379;SDS011;10349;48.666;8.948;2022-12-07T15:42:12;7.73;;;5.13;;
20379;SDS011;10349;48.666;8.948;2022-12-07T15:44:37;8.83;;;4.90;;
20379;SDS011;10349;48.666;8.948;2022-12-07T15:47:22;7.67;;;5.97;;
20379;SDS011;10349;48.666;8.948;2022-12-07T15:49:47;7.27;;;5.33;;
20379;SDS011;10349;48.666;8.948;2022-12-07T15:52:13;6.43;;;4.67;;
20379;SDS011;10349;48.666;8.948;2022-12-07T15:54:39;6.10;;;5.50;;
20379;SDS011;10349;48.666;8.948;2022-12-07T15:57:04;8.03;;;5.53;;
20379;SDS011;10349;48.666;8.948;2022-12-07T15:59:30;5.03;;;4.37;;
20379;SDS011;10349;48.666;8.948;2022-12-07T16:01:56;5.97;;;4.53;;
20379;SDS011;10349;48.666;8.948;2022-12-07T16:04:21;5.83;;;5.23;;
20379;SDS011;10349;48.666;8.948;2022-12-07T16:06:47;9.60;;;5.33;;
20379;SDS011;10349;48.666;8.948;2022-12-07T16:09:13;6.97;;;4.93;;
20379;SDS011;10349;48.666;8.948;2022-12-07T16:11:38;15.03;;;6.27;;
20379;SDS011;10349;48.666;8.948;2022-12-07T16:14:04;13.40;;;5.33;;
20379;SDS011;10349;48.666;8.948;2022-12-07T16:16:30;7.70;;;5.43;;
20379;SDS011;10349;48.666;8.948;2022-12-07T16:18:55;6.40;;;4.70;;
20379;SDS011;10349;48.666;8.948;2022-12-07T16:21:23;5.07;;;4.67;;
20379;SDS011;10349;48.666;8.948;2022-12-07T16:23:48;7.30;;;4.63;;
20379;SDS011;10349;48.666;8.948;2022-12-07T16:26:15;6.67;;;5.07;;
20379;SDS011;10349;48.666;8.948;2022-12-07T16:28:42;6.20;;;4.57;;
20379;SDS011;10349;48.666;8.948;2022-12-07T16:31:10;12.67;;;5.93;;
20379;SDS011;10349;48.666;8.948;2022-12-07T16:33:38;4.73;;;4.17;;
20379;SDS011;10349;48.666;8.948;2022-12-07T16:36:06;5.27;;;4.70;;
20379;SDS011;10349;48.666;8.948;2022-12-07T16:38:33;6.43;;;5.83;;
20379;SDS011;10349;48.666;8.948;2022-12-07T16:40:59;6.43;;;5.60;;
20379;SDS011;10349;48.666;8.948;2022-12-07T16:43:25;5.57;;;4.97;;
20379;SDS011;10349;48.666;8.948;2022-12-07T16:45:51;8.90;;;5.43;;
20379;SDS011;10349;48.666;8.948;2022-12-07T16:48:17;6.10;;;5.23;;
20379;SDS011;10349;48.666;8.948;2022-12-07T16:50:43;5.57;;;4.90;;
20379;SDS011;10349;48.666;8.948;2022-12-07T16:53:10;6.00;;;4.57;;
20379;SDS011;10349;48.666;8.948;2022-12-07T16:55:40;7.43;;;4.57;;
20379;SDS011;10349;48.666;8.948;2022-12-07T16:58:07;5.10;;;4.03;;
20379;SDS011;10349;48.666;8.948;2022-12-07T17:00:33;4.90;;;4.30;;
20379;SDS011;10349;48.666;8.948;2022-12-07T17:03:01;4.10;;;3.53;;
20379;SDS011;10349;48.666;8.948;2022-12-07T17:05:27;5.40;;;3.93;;
20379;SDS011;10349;48.666;8.948;2022-12-07T17:07:54;6.03;;;5.40;;
20379;SDS011;10349;48.666;8.948;2022-12-07T17:10:20;8.77;;;6.80;;
20379;SDS011;10349;48.666;8.948;2022-12-07T17:12:46;7.70;;;5.60;;
20379;SDS011;10349;48.666;8.948;2022-12-07T17:15:12;8.17;;;5.80;;
20379;SDS011;10349;48.666;8.948;2022-12-07T17:17:41;6.10;;;5.50;;
20379;SDS011;10349;48.666;8.948;2022-12-07T17:20:08;7.93;;;6.40;;
20379;SDS011;10349;48.666;8.948;2022-12-07T17:22:34;9.53;;;7.20;;
20379;SDS011;10349;48.666;8.948;2022-12-07T17:25:00;8.80;;;7.40;;
20379;SDS011;10349;48.666;8.948;2022-12-07T17:27:25;13.93;;;8.67;;
20379;SDS011;10349;48.666;8.948;2022-12-07T17:29:51;8.73;;;6.77;;